createdAt,value
2022-12-22T00:01:53.623Z,83.91
2022-12-22T00:05:15.214Z,83.99
2022-12-22T00:08:36.464Z,83.96
2022-12-22T00:11:58.338Z,83.87
2022-12-22T00:15:21.907Z,83.93
2022-12-22T00:18:44.663Z,84.18
2022-12-22T00:22:06.494Z,84.19
2022-12-22T00:25:32.319Z,84.14
2022-12-22T00:28:54.869Z,84.12
2022-12-22T00:32:16.595Z,84.10
2022-12-22T00:35:42.945Z,84.26
2022-12-22T00:39:04.619Z,84.07
2022-12-22T00:42:26.494Z,84.23
2022-12-22T00:45:49.123Z,84.00
2022-12-22T00:49:10.870Z,84.22
2022-12-22T00:52:33.868Z,84.07
2022-12-22T00:55:55.780Z,84.03
2022-12-22T00:59:19.608Z,84.06
2022-12-22T01:02:41.672Z,84.06
2022-12-22T01:06:03.756Z,84.18
2022-12-22T01:09:28.693Z,84.26
2022-12-22T01:12:53.827Z,84.27
2022-12-22T01:16:15.781Z,84.21
2022-12-22T01:19:37.741Z,84.17
2022-12-22T01:22:59.743Z,84.17
2022-12-22T01:26:21.562Z,84.06
2022-12-22T01:29:43.598Z,84.34
2022-12-22T01:33:05.317Z,84.24
2022-12-22T01:36:27.570Z,84.17
2022-12-22T01:39:49.299Z,84.25
2022-12-22T01:43:11.024Z,84.01
2022-12-22T01:46:45.544Z,84.07
2022-12-22T01:50:07.387Z,84.02
2022-12-22T01:53:32.707Z,84.15
2022-12-22T01:56:54.676Z,84.16
2022-12-22T02:00:16.368Z,84.15
2022-12-22T02:03:40.870Z,84.28
2022-12-22T02:07:05.040Z,84.25
2022-12-22T02:10:39.219Z,84.43
2022-12-22T02:14:10.515Z,84.24
2022-12-22T02:17:39.831Z,84.24
2022-12-22T02:21:07.106Z,84.06
2022-12-22T02:24:41.787Z,84.18
2022-12-22T02:28:08.047Z,84.45
2022-12-22T02:31:29.913Z,84.57
2022-12-22T02:34:51.607Z,84.51
2022-12-22T02:38:25.316Z,84.52
2022-12-22T02:42:02.542Z,84.47
2022-12-22T02:45:35.200Z,84.51
2022-12-22T02:49:03.414Z,84.38
2022-12-22T02:52:34.048Z,84.37
2022-12-22T02:55:55.643Z,84.61
2022-12-22T02:59:17.570Z,84.73
2022-12-22T03:02:39.859Z,84.85
2022-12-22T03:06:01.853Z,84.78
2022-12-22T03:09:23.575Z,84.83
2022-12-22T03:12:45.510Z,85.00
2022-12-22T03:16:07.262Z,85.13
2022-12-22T03:19:29.171Z,85.06
2022-12-22T03:22:51.108Z,84.94
2022-12-22T03:25:54.655Z,84.94
2022-12-22T03:28:58.218Z,85.18
2022-12-22T03:32:01.774Z,84.94
2022-12-22T03:35:07.641Z,85.00
2022-12-22T03:38:11.384Z,84.99
2022-12-22T03:41:29.312Z,84.97
2022-12-22T03:44:50.594Z,85.00
2022-12-22T03:47:54.184Z,85.05
2022-12-22T03:50:57.757Z,85.17
2022-12-22T03:54:01.640Z,85.24
2022-12-22T03:57:05.161Z,85.05
2022-12-22T04:00:10.952Z,85.11
2022-12-22T04:03:14.640Z,85.00
2022-12-22T04:06:18.832Z,85.07
2022-12-22T04:09:22.384Z,85.42
2022-12-22T04:12:44.062Z,85.39
2022-12-22T04:15:47.586Z,85.28
2022-12-22T04:18:51.314Z,85.26
2022-12-22T04:21:55.250Z,85.22
2022-12-22T04:24:58.847Z,85.25
2022-12-22T04:28:02.596Z,85.25
2022-12-22T04:31:06.557Z,85.32
2022-12-22T04:34:10.401Z,85.36
2022-12-22T04:37:17.460Z,85.22
2022-12-22T04:40:23.799Z,85.30
2022-12-22T04:43:27.643Z,85.41
2022-12-22T04:46:32.739Z,85.47
2022-12-22T04:49:37.833Z,85.30
2022-12-22T04:52:41.412Z,85.41
2022-12-22T04:55:47.415Z,85.32
2022-12-22T04:58:51.063Z,85.37
2022-12-22T05:01:54.692Z,85.26
2022-12-22T05:04:58.442Z,85.30
2022-12-22T05:08:02.236Z,85.42
2022-12-22T05:11:06.798Z,85.28
2022-12-22T05:14:10.265Z,85.29
2022-12-22T05:17:13.814Z,85.29
2022-12-22T05:20:18.048Z,85.38
2022-12-22T05:23:21.587Z,85.62
2022-12-22T05:26:25.199Z,85.38
2022-12-22T05:29:28.698Z,85.48
2022-12-22T05:32:34.709Z,85.43
2022-12-22T05:35:38.169Z,85.48
2022-12-22T05:38:41.865Z,85.46
2022-12-22T05:41:45.531Z,85.49
2022-12-22T05:44:49.097Z,85.37
2022-12-22T05:47:53.451Z,85.30
2022-12-22T05:50:57.099Z,85.30
2022-12-22T05:54:00.709Z,85.38
2022-12-22T05:57:04.399Z,85.66
2022-12-22T06:00:14.079Z,85.71
2022-12-22T06:03:17.799Z,85.73
2022-12-22T06:06:21.607Z,85.61
2022-12-22T06:09:25.175Z,85.70
2022-12-22T06:12:28.881Z,85.64
2022-12-22T06:15:32.393Z,85.80
2022-12-22T06:18:35.987Z,85.82
2022-12-22T06:21:39.576Z,85.88
2022-12-22T06:24:43.096Z,85.77
2022-12-22T06:27:47.112Z,85.63
2022-12-22T06:30:50.822Z,85.74
2022-12-22T06:33:54.420Z,85.75
2022-12-22T06:36:58.056Z,85.76
2022-12-22T06:40:01.641Z,85.69
2022-12-22T06:43:11.151Z,85.93
2022-12-22T06:46:14.785Z,86.08
2022-12-22T06:49:18.938Z,86.00
2022-12-22T06:52:22.599Z,86.11
2022-12-22T06:55:26.408Z,85.99
2022-12-22T06:58:29.905Z,86.14
2022-12-22T07:01:33.613Z,86.07
2022-12-22T07:04:37.225Z,86.14
2022-12-22T07:07:40.694Z,86.18
2022-12-22T07:11:00.235Z,86.38
2022-12-22T07:14:03.796Z,86.48
2022-12-22T07:17:08.495Z,86.30
2022-12-22T07:20:16.949Z,86.41
2022-12-22T07:23:20.541Z,86.31
2022-12-22T07:26:24.148Z,86.45
2022-12-22T07:29:27.754Z,86.51
2022-12-22T07:32:31.471Z,86.38
2022-12-22T07:35:34.966Z,86.51
2022-12-22T07:38:40.334Z,86.48
2022-12-22T07:42:07.365Z,86.83
2022-12-22T07:45:12.146Z,86.82
2022-12-22T07:48:33.856Z,86.79
2022-12-22T07:51:40.211Z,86.95
2022-12-22T07:54:42.929Z,86.89
2022-12-22T07:57:46.716Z,86.75
2022-12-22T08:00:50.171Z,86.96
2022-12-22T08:03:53.820Z,87.09
2022-12-22T08:06:57.280Z,86.93
2022-12-22T08:10:00.891Z,86.80
2022-12-22T08:13:04.425Z,86.99
2022-12-22T08:16:10.993Z,86.95
2022-12-22T08:19:14.678Z,87.07
2022-12-22T08:22:18.274Z,87.08
2022-12-22T08:25:21.820Z,87.06
2022-12-22T08:28:25.458Z,87.23
2022-12-22T08:31:30.374Z,87.14
2022-12-22T08:34:34.252Z,87.25
2022-12-22T08:37:40.840Z,87.37
2022-12-22T08:40:45.267Z,87.18
2022-12-22T08:43:48.705Z,87.00
2022-12-22T08:46:53.178Z,87.25
2022-12-22T08:49:56.859Z,87.22
2022-12-22T08:53:04.161Z,87.20
2022-12-22T08:56:09.083Z,87.02
2022-12-22T08:59:13.576Z,86.99
2022-12-22T09:02:17.211Z,87.11
2022-12-22T09:05:20.966Z,87.58
2022-12-22T09:08:24.491Z,87.47
2022-12-22T09:11:28.943Z,87.14
2022-12-22T09:14:33.294Z,87.01
2022-12-22T09:17:37.488Z,87.02
2022-12-22T09:20:40.979Z,87.42
2022-12-22T09:23:44.846Z,87.37
2022-12-22T09:26:48.487Z,87.51
2022-12-22T09:29:51.996Z,87.53
2022-12-22T09:32:56.151Z,87.46
2022-12-22T09:35:59.964Z,87.65
2022-12-22T09:39:08.510Z,87.58
2022-12-22T09:42:18.192Z,87.70
2022-12-22T09:45:21.691Z,87.79
2022-12-22T09:48:30.187Z,87.71
2022-12-22T09:51:39.548Z,87.61
2022-12-22T09:54:43.146Z,87.67
2022-12-22T09:57:46.747Z,87.77
2022-12-22T10:00:56.796Z,87.69
2022-12-22T10:04:06.649Z,87.45
2022-12-22T10:07:20.707Z,87.50
2022-12-22T10:10:27.842Z,87.52
2022-12-22T10:13:31.485Z,87.52
2022-12-22T10:16:35.095Z,87.56
2022-12-22T10:19:38.594Z,87.67
2022-12-22T10:22:48.813Z,87.65
2022-12-22T10:29:32.427Z,87.61
2022-12-22T10:32:34.819Z,87.23
2022-12-22T10:35:48.475Z,87.27
2022-12-22T10:38:59.246Z,87.36
2022-12-22T10:42:10.180Z,87.39
2022-12-22T10:45:20.935Z,87.42
2022-12-22T10:48:30.224Z,87.56
2022-12-22T10:51:33.852Z,87.54
2022-12-22T10:54:37.908Z,87.34
2022-12-22T10:57:41.467Z,87.39
2022-12-22T11:01:00.426Z,87.51
2022-12-22T11:04:21.900Z,87.33
2022-12-22T11:07:25.735Z,87.41
2022-12-22T11:10:39.142Z,87.48
2022-12-22T11:13:55.748Z,87.24
2022-12-22T11:17:06.975Z,87.04
2022-12-22T11:20:32.727Z,87.52
2022-12-22T11:23:44.413Z,87.54
2022-12-22T11:26:57.777Z,87.57
2022-12-22T11:30:14.125Z,87.61
2022-12-22T11:33:28.129Z,87.50
2022-12-22T11:36:42.946Z,87.36
2022-12-22T11:39:59.099Z,87.28
2022-12-22T11:43:23.692Z,87.27
2022-12-22T11:46:33.214Z,87.36
2022-12-22T11:51:01.543Z,87.40
2022-12-22T11:54:10.831Z,87.53
2022-12-22T11:57:27.983Z,87.47
2022-12-22T12:01:12.626Z,87.57
2022-12-22T12:04:21.256Z,87.53
2022-12-22T12:07:32.247Z,87.50
2022-12-22T12:10:42.150Z,87.46
2022-12-22T12:13:55.214Z,87.26
2022-12-22T12:17:02.882Z,87.38
2022-12-22T12:20:34.941Z,87.32
2022-12-22T12:24:10.343Z,87.11
2022-12-22T12:27:29.216Z,86.94
2022-12-22T12:30:39.519Z,86.97
2022-12-22T12:33:47.627Z,86.78
2022-12-22T12:36:58.492Z,86.86
2022-12-22T12:40:21.433Z,86.63
2022-12-22T12:43:25.912Z,86.90
2022-12-22T12:46:59.208Z,86.75
2022-12-22T12:50:33.574Z,86.37
2022-12-22T12:54:11.063Z,86.27
2022-12-22T12:57:26.534Z,86.27
2022-12-22T13:00:51.248Z,86.23
2022-12-22T13:04:04.218Z,86.26
2022-12-22T13:07:08.479Z,86.33
2022-12-22T13:10:20.183Z,86.09
2022-12-22T13:13:54.427Z,86.13
2022-12-22T13:17:39.934Z,86.24
2022-12-22T13:20:44.892Z,85.99
2022-12-22T13:24:23.359Z,85.87
2022-12-22T13:27:24.333Z,85.87
2022-12-22T13:30:30.740Z,85.89
2022-12-22T13:33:42.159Z,85.74
2022-12-22T13:36:47.145Z,85.59
2022-12-22T13:40:13.579Z,85.74
2022-12-22T13:43:20.488Z,85.51
2022-12-22T13:46:24.568Z,85.25
2022-12-22T13:49:59.166Z,85.18
2022-12-22T13:52:54.223Z,85.40
2022-12-22T13:55:58.814Z,85.03
2022-12-22T13:59:03.456Z,85.17
2022-12-22T14:02:15.792Z,85.10
2022-12-22T14:05:20.168Z,85.00
2022-12-22T14:08:24.600Z,84.81
2022-12-22T14:11:30.914Z,84.73
2022-12-22T14:14:36.875Z,84.82
2022-12-22T14:17:44.623Z,84.58
2022-12-22T14:20:54.381Z,84.62
2022-12-22T14:23:58.010Z,84.45
2022-12-22T14:27:02.038Z,84.43
2022-12-22T14:30:16.296Z,84.20
2022-12-22T14:33:29.952Z,84.17
2022-12-22T14:36:40.829Z,84.28
2022-12-22T14:39:54.754Z,84.23
2022-12-22T14:43:01.146Z,84.07
2022-12-22T14:46:05.587Z,84.04
2022-12-22T14:49:14.853Z,84.14
2022-12-22T14:52:22.805Z,84.21
2022-12-22T14:55:29.701Z,83.98
2022-12-22T14:58:39.014Z,84.00
2022-12-22T15:01:58.453Z,83.95
2022-12-22T15:05:16.162Z,83.85
2022-12-22T15:08:38.750Z,83.69
2022-12-22T15:11:45.448Z,83.94
2022-12-22T15:14:48.224Z,83.83
2022-12-22T15:17:53.340Z,83.73
2022-12-22T15:20:57.765Z,83.73
2022-12-22T15:24:01.594Z,83.84
2022-12-22T15:27:05.401Z,83.99
2022-12-22T15:30:11.222Z,83.84
2022-12-22T15:33:16.986Z,83.81
2022-12-22T15:36:20.620Z,83.92
2022-12-22T15:39:24.482Z,83.82
2022-12-22T15:42:28.085Z,83.92
2022-12-22T15:45:31.671Z,83.93
2022-12-22T15:48:38.349Z,83.78
2022-12-22T15:51:43.606Z,83.82
2022-12-22T15:54:47.056Z,83.98
2022-12-22T15:57:52.448Z,83.94
2022-12-22T16:00:56.076Z,84.00
2022-12-22T16:03:59.843Z,83.88
2022-12-22T16:07:03.423Z,83.78
2022-12-22T16:10:20.743Z,83.82
2022-12-22T16:13:27.332Z,83.73
2022-12-22T16:16:32.366Z,83.92
2022-12-22T16:19:35.861Z,83.66
2022-12-22T16:22:41.032Z,83.72
2022-12-22T16:25:45.932Z,83.73
2022-12-22T16:28:50.050Z,83.71
2022-12-22T16:31:54.179Z,83.73
2022-12-22T16:35:06.767Z,83.73
2022-12-22T16:38:17.977Z,83.72
2022-12-22T16:41:24.819Z,83.56
2022-12-22T16:47:54.005Z,83.65
2022-12-22T16:50:57.542Z,83.67
2022-12-22T16:54:01.176Z,83.69
2022-12-22T16:57:04.781Z,83.87
2022-12-22T17:00:17.791Z,83.73
2022-12-22T17:03:25.166Z,83.71
2022-12-22T17:06:29.002Z,83.85
2022-12-22T17:09:42.963Z,83.68
2022-12-22T17:12:47.668Z,83.84
2022-12-22T17:15:51.490Z,83.78
2022-12-22T17:18:55.300Z,83.84
2022-12-22T17:22:00.241Z,83.93
2022-12-22T17:25:07.822Z,83.93
2022-12-22T17:28:14.088Z,83.91
2022-12-22T17:31:19.051Z,83.70
2022-12-22T17:34:22.687Z,83.60
2022-12-22T17:37:26.330Z,83.52
2022-12-22T17:40:30.305Z,83.50
2022-12-22T17:43:33.951Z,83.72
2022-12-22T17:46:37.626Z,83.85
2022-12-22T17:49:41.873Z,83.77
2022-12-22T17:52:45.882Z,83.68
2022-12-22T17:56:08.701Z,83.72
2022-12-22T17:59:13.362Z,83.61
2022-12-22T18:02:31.059Z,83.61
2022-12-22T18:05:40.335Z,83.72
2022-12-22T18:08:44.352Z,83.82
2022-12-22T18:11:48.162Z,83.81
2022-12-22T18:14:52.636Z,83.90
2022-12-22T18:17:56.329Z,83.54
2022-12-22T18:21:06.385Z,83.69
2022-12-22T18:24:16.254Z,83.71
2022-12-22T18:27:20.225Z,83.79
2022-12-22T18:30:26.808Z,83.70
2022-12-22T18:33:32.228Z,83.71
2022-12-22T18:36:36.842Z,83.55
2022-12-22T18:39:41.085Z,83.52
2022-12-22T18:42:44.577Z,83.60
2022-12-22T18:45:48.291Z,83.60
2022-12-22T18:48:51.925Z,83.62
2022-12-22T18:51:55.331Z,83.61
2022-12-22T18:54:59.098Z,83.39
2022-12-22T18:58:02.808Z,83.35
2022-12-22T19:01:07.527Z,83.35
2022-12-22T19:04:11.611Z,83.33
2022-12-22T19:07:17.997Z,83.32
2022-12-22T19:10:21.935Z,83.30
2022-12-22T19:13:29.683Z,83.30
2022-12-22T19:16:33.481Z,83.40
2022-12-22T19:19:37.081Z,83.47
2022-12-22T19:22:40.605Z,83.47
2022-12-22T19:25:46.110Z,83.53
2022-12-22T19:28:51.676Z,83.52
2022-12-22T19:31:55.402Z,83.45
2022-12-22T19:34:58.977Z,83.56
2022-12-22T19:38:02.829Z,83.52
2022-12-22T19:41:23.457Z,83.55
2022-12-22T19:44:29.854Z,83.58
2022-12-22T19:47:32.416Z,83.44
2022-12-22T19:50:35.962Z,83.38
2022-12-22T19:53:39.697Z,83.45
2022-12-22T19:56:45.621Z,83.39
2022-12-22T19:59:51.732Z,83.21
2022-12-22T20:02:57.254Z,83.17
2022-12-22T20:06:01.046Z,83.21
2022-12-22T20:09:05.210Z,83.12
2022-12-22T20:12:21.102Z,83.18
2022-12-22T20:15:26.308Z,83.29
2022-12-22T20:18:30.470Z,83.40
2022-12-22T20:21:34.981Z,83.40
2022-12-22T20:24:38.493Z,83.33
2022-12-22T20:27:42.317Z,83.18
2022-12-22T20:30:46.847Z,83.03
2022-12-22T20:33:51.156Z,83.13
2022-12-22T20:36:55.050Z,83.30
2022-12-22T20:39:58.539Z,83.17
2022-12-22T20:43:02.266Z,83.28
2022-12-22T20:46:13.883Z,83.25
2022-12-22T20:49:17.906Z,83.08
2022-12-22T20:52:21.568Z,83.30
2022-12-22T20:55:27.253Z,83.57
2022-12-22T20:58:35.526Z,83.41
2022-12-22T21:01:39.168Z,83.25
2022-12-22T21:04:42.848Z,83.07
2022-12-22T21:07:48.208Z,83.09
2022-12-22T21:10:53.643Z,83.29
2022-12-22T21:13:58.481Z,83.10
2022-12-22T21:17:02.172Z,83.01
2022-12-22T21:20:10.412Z,83.05
2022-12-22T21:23:15.881Z,83.12
2022-12-22T21:26:24.390Z,83.17
2022-12-22T21:29:28.112Z,83.06
2022-12-22T21:32:31.655Z,83.14
2022-12-22T21:35:37.288Z,83.30
2022-12-22T21:38:40.923Z,83.26
2022-12-22T21:41:59.889Z,83.02
2022-12-22T21:45:03.637Z,82.77
2022-12-22T21:48:11.359Z,82.84
2022-12-22T21:51:14.888Z,82.94
2022-12-22T21:54:19.778Z,82.98
2022-12-22T21:57:23.718Z,83.04
2022-12-22T22:00:29.000Z,83.04
2022-12-22T22:03:33.168Z,82.99
2022-12-22T22:06:37.109Z,82.97
2022-12-22T22:09:40.621Z,82.97
2022-12-22T22:12:44.467Z,82.73
2022-12-22T22:15:48.046Z,82.86
2022-12-22T22:18:51.645Z,82.69
2022-12-22T22:21:55.169Z,82.60
2022-12-22T22:24:58.736Z,82.69
2022-12-22T22:28:02.322Z,82.66
2022-12-22T22:31:11.772Z,82.49
2022-12-22T22:34:15.854Z,82.53
2022-12-22T22:37:19.480Z,82.47
2022-12-22T22:40:23.899Z,82.48
2022-12-22T22:43:27.532Z,82.48
2022-12-22T22:46:31.071Z,82.43
2022-12-22T22:49:35.154Z,82.44
2022-12-22T22:52:38.633Z,82.31
2022-12-22T22:55:42.173Z,82.32
2022-12-22T22:58:45.667Z,82.42
2022-12-22T23:01:49.325Z,82.28
2022-12-22T23:04:52.799Z,82.15
2022-12-22T23:07:56.240Z,82.21
2022-12-22T23:11:00.083Z,82.31
2022-12-22T23:14:03.682Z,82.28
2022-12-22T23:17:07.630Z,82.23
2022-12-22T23:20:12.580Z,82.17
2022-12-22T23:23:16.213Z,82.08
2022-12-22T23:26:19.831Z,82.18
2022-12-22T23:29:23.472Z,82.21
2022-12-22T23:32:27.244Z,82.26
2022-12-22T23:35:30.945Z,82.06
2022-12-22T23:38:34.920Z,82.03
2022-12-22T23:41:38.621Z,81.90
2022-12-22T23:44:42.166Z,81.90
2022-12-22T23:47:46.416Z,81.81
2022-12-22T23:50:50.096Z,81.94
2022-12-22T23:53:54.108Z,81.84
2022-12-22T23:56:57.606Z,82.05
